首页
METAR-TAF:

METAR-TAF

机场 :

Big Piney / Marbleton, 怀俄明州, 美国

纬度: 42-34-44N, 经度: 110-06-11W, 海拔: 2126米

当前天气观测

该预报发布于1小时和4分钟前的20:53 UTC
风速23节,风向,有时为33节阵风
温度 2°C
湿度 37%
气压 1026 hPa
能見度: 16.1公里
少量云层高于10000英尺

METAR: KBPI 272053Z AUTO 36023G33KT 10SM FEW100 02/M11 A3031 RMK AO2 PK WND 01033/2045 WSHFT 2028 SLP270 T00221106 56008

时间: 14:57 (21:57 UTC)

预报

该预报发布于20分钟前的21:37 UTC
预报有效从27日的 22点(UTC)到 28日的 18点(UTC)
风速20节,风向北转西北,有时为30节阵风
能見度: 10公里
少量云层高于20000英尺
从 28日的 0200点(UTC)
风速12节,风向
能見度: 10公里
天空无云
从 28日的 0500点(UTC)
风速8节,风向
能見度: 10公里
天空无云

TAF: KBPI 272137Z 2722/2818 34020G30KT P6SM FEW200 FM280200 35012KT P6SM SKC FM280500 35008KT P6SM SKC

超过4000个机场的气象观测和天气预报(METAR&TAF报告)。

可查询的气象台以黄色和红色小点在地图上表示。

将鼠标移到小点上方,可查看气象台名称。

然后点击查看天气观测和预报。

如需切换地图:点击带黑十字的绿色按钮放大地图;点击带横线的绿色按钮缩小地图;或者点击绿色箭头查看邻近地区的地图。


METAR-TAF: